Time;durP1;ratioP1;P1;durP2;ratioP2;P2;SDS_P1;SDS_P2;PMS_P1;PMS_P2;Temp;Humidity;BMP_temperature;BMP_pressure;BME280_temperature;BME280_humidity;BME280_pressure;Samples;Min_cycle;Max_cycle;Signal;HPM_P1;HPM_P2
2022/10/04 00:00:08;;;;;;;6.97;2.20;;;;;;;;;;5035687;28;20025;-23
2022/10/04 00:02:35;;;;;;;4.63;2.58;;;;;;;;;;5036044;28;20045;-23
2022/10/04 00:05:06;;;;;;;6.15;1.98;;;;;;;;;;5036244;28;20036;-22
2022/10/04 00:07:46;;;;;;;5.72;2.08;;;;;;;;;;5036222;28;20038;-26
2022/10/04 00:10:18;;;;;;;13.60;2.42;;;;;;;;;;5036165;28;20036;-23
2022/10/04 00:12:47;;;;;;;5.78;2.33;;;;;;;;;;5035071;28;20033;-25
2022/10/04 00:15:22;;;;;;;7.28;2.10;;;;;;;;;;5035130;28;20021;-23
2022/10/04 00:18:00;;;;;;;5.18;2.00;;;;;;;;;;5036249;28;20397;-26
2022/10/04 00:20:45;;;;;;;7.70;2.15;;;;;;;;;;5036219;28;20405;-26
2022/10/04 00:23:24;;;;;;;5.55;1.88;;;;;;;;;;5035849;28;20033;-23
2022/10/04 00:26:19;;;;;;;7.13;2.38;;;;;;;;;;5036122;28;20112;-23
2022/10/04 00:28:48;;;;;;;4.32;1.92;;;;;;;;;;4982498;28;20137;-22
2022/10/04 00:31:17;;;;;;;6.63;2.60;;;;;;;;;;5035751;28;20037;-23
2022/10/04 00:33:43;;;;;;;5.35;2.17;;;;;;;;;;5034673;28;20038;-22
2022/10/04 00:36:29;;;;;;;6.97;2.10;;;;;;;;;;5035863;28;20034;-26
2022/10/04 00:39:16;;;;;;;6.97;2.40;;;;;;;;;;5036134;28;20362;-23
2022/10/04 00:41:48;;;;;;;4.50;1.73;;;;;;;;;;5035332;28;20115;-23
2022/10/04 00:44:29;;;;;;;7.82;2.50;;;;;;;;;;5035787;28;20032;-22
2022/10/04 00:46:55;;;;;;;;;;;;;;;;;;5035902;28;20065;-22
2022/10/04 00:49:24;;;;;;;6.60;1.95;;;;;;;;;;5035406;28;20388;-27
2022/10/04 00:52:01;;;;;;;7.40;1.95;;;;;;;;;;5035824;28;20033;-22
2022/10/04 00:54:27;;;;;;;9.38;2.50;;;;;;;;;;5034451;28;20057;-22
2022/10/04 00:56:59;;;;;;;5.30;1.73;;;;;;;;;;5035216;28;20473;-22
2022/10/04 01:00:04;;;;;;;4.60;1.92;;;;;;;;;;5035752;28;20037;-23
2022/10/04 01:02:37;;;;;;;6.07;1.77;;;;;;;;;;4974624;28;20368;-28
2022/10/04 01:05:07;;;;;;;4.43;2.13;;;;;;;;;;4974852;28;20038;-22
2022/10/04 01:07:34;;;;;;;6.68;2.55;;;;;;;;;;5007896;28;20121;-23
2022/10/04 01:10:19;;;;;;;3.35;1.85;;;;;;;;;;5035315;28;20031;-23
2022/10/04 01:12:54;;;;;;;3.58;1.70;;;;;;;;;;5035191;28;20419;-23
2022/10/04 01:15:23;;;;;;;5.10;2.08;;;;;;;;;;5035272;28;20413;-23
2022/10/04 01:18:09;;;;;;;5.82;2.00;;;;;;;;;;5035102;28;20041;-23
2022/10/04 01:20:55;;;;;;;13.43;2.58;;;;;;;;;;5035181;28;20058;-24
2022/10/04 01:23:31;;;;;;;9.93;2.95;;;;;;;;;;5024627;28;20091;-22
2022/10/04 01:25:57;;;;;;;2.50;1.42;;;;;;;;;;5034800;28;20100;-22
2022/10/04 01:28:24;;;;;;;4.35;1.70;;;;;;;;;;5035556;28;20040;-24
2022/10/04 01:30:50;;;;;;;6.13;1.63;;;;;;;;;;5035001;28;20405;-26
2022/10/04 01:33:16;;;;;;;7.28;2.05;;;;;;;;;;5034657;28;20145;-24
2022/10/04 01:35:43;;;;;;;16.30;2.30;;;;;;;;;;5034693;28;20037;-25
2022/10/04 01:38:11;;;;;;;4.22;2.03;;;;;;;;;;5034548;28;20470;-22
2022/10/04 01:40:43;;;;;;;6.35;1.90;;;;;;;;;;5034921;28;20036;-23
2022/10/04 01:43:11;;;;;;;6.88;2.55;;;;;;;;;;5035599;28;20312;-25
2022/10/04 01:45:40;;;;;;;8.93;1.95;;;;;;;;;;5034618;28;20033;-27
2022/10/04 01:48:14;;;;;;;5.03;2.72;;;;;;;;;;5034717;28;20450;-22
2022/10/04 01:50:40;;;;;;;6.35;2.10;;;;;;;;;;5034334;28;20033;-22
2022/10/04 01:53:12;;;;;;;4.03;1.67;;;;;;;;;;5034642;28;20029;-22
2022/10/04 01:55:40;;;;;;;4.35;1.42;;;;;;;;;;5035016;28;20374;-23
2022/10/04 01:58:15;;;;;;;2.80;1.65;;;;;;;;;;5034685;28;20076;-26
2022/10/04 02:00:57;;;;;;;6.32;2.33;;;;;;;;;;5034314;28;20033;-23
2022/10/04 02:03:30;;;;;;;3.28;1.67;;;;;;;;;;5034154;28;20069;-22
2022/10/04 02:06:00;;;;;;;2.63;1.40;;;;;;;;;;5034652;28;20473;-22
2022/10/04 02:08:28;;;;;;;4.78;1.88;;;;;;;;;;5034412;28;20420;-24
2022/10/04 02:10:55;;;;;;;9.27;1.67;;;;;;;;;;5034597;28;20327;-26
2022/10/04 02:13:23;;;;;;;4.15;1.75;;;;;;;;;;5034257;28;20386;-23
2022/10/04 02:15:49;;;;;;;4.40;1.85;;;;;;;;;;5034294;28;20025;-22
2022/10/04 02:18:17;;;;;;;6.68;1.85;;;;;;;;;;5034720;28;20026;-25
2022/10/04 02:20:44;;;;;;;5.80;2.00;;;;;;;;;;5034464;28;20037;-24
2022/10/04 02:23:11;;;;;;;3.05;1.50;;;;;;;;;;5034404;28;20448;-25
2022/10/04 02:25:38;;;;;;;3.83;1.80;;;;;;;;;;5034174;28;20033;-22
2022/10/04 02:28:04;;;;;;;3.80;2.30;;;;;;;;;;5034100;28;20033;-23
2022/10/04 02:30:41;;;;;;;6.25;2.08;;;;;;;;;;5033164;28;20459;-23
2022/10/04 02:33:08;;;;;;;8.55;2.17;;;;;;;;;;5034060;28;20034;-25
2022/10/04 02:35:42;;;;;;;4.20;1.63;;;;;;;;;;5034359;28;20041;-23
2022/10/04 02:38:12;;;;;;;4.78;1.63;;;;;;;;;;5034602;28;20100;-22
2022/10/04 02:40:49;;;;;;;4.25;1.83;;;;;;;;;;5034060;28;20041;-27
2022/10/04 02:43:18;;;;;;;5.30;1.52;;;;;;;;;;5034532;28;20029;-23
2022/10/04 02:46:03;;;;;;;2.63;2.17;;;;;;;;;;5033060;28;20060;-23
2022/10/04 02:48:35;;;;;;;4.00;1.45;;;;;;;;;;5034040;28;20030;-23
2022/10/04 02:51:28;;;;;;;5.43;1.63;;;;;;;;;;5034664;28;20048;-23
2022/10/04 02:53:57;;;;;;;4.53;2.08;;;;;;;;;;5033107;28;20087;-23
2022/10/04 02:56:24;;;;;;;3.58;1.77;;;;;;;;;;5037732;28;20037;-23
2022/10/04 02:58:50;;;;;;;5.28;1.95;;;;;;;;;;5037561;28;20029;-24
2022/10/04 03:01:24;;;;;;;4.53;1.95;;;;;;;;;;5037385;28;20049;-23
2022/10/04 03:03:51;;;;;;;11.07;1.92;;;;;;;;;;5037167;28;20107;-24
2022/10/04 03:06:18;;;;;;;2.72;1.63;;;;;;;;;;5037931;28;20373;-25
2022/10/04 03:08:53;;;;;;;3.42;2.08;;;;;;;;;;5037603;28;20045;-24
2022/10/04 03:11:21;;;;;;;3.28;1.60;;;;;;;;;;5037325;28;20104;-23
2022/10/04 03:13:50;;;;;;;8.52;4.30;;;;;;;;;;5036179;28;20025;-27
2022/10/04 03:16:17;;;;;;;8.82;1.70;;;;;;;;;;5037104;28;20049;-23
2022/10/04 03:18:44;;;;;;;4.78;2.05;;;;;;;;;;5036162;28;20104;-23
2022/10/04 03:21:13;;;;;;;2.78;1.40;;;;;;;;;;5037372;28;20056;-24
2022/10/04 03:23:40;;;;;;;7.80;1.98;;;;;;;;;;5036984;28;20091;-23
2022/10/04 03:26:17;;;;;;;6.60;1.42;;;;;;;;;;5037804;28;20021;-23
2022/10/04 03:28:44;;;;;;;2.92;1.42;;;;;;;;;;5036947;28;20041;-24
2022/10/04 03:31:11;;;;;;;4.22;1.33;;;;;;;;;;5037213;28;20389;-23
2022/10/04 03:33:37;;;;;;;5.07;1.80;;;;;;;;;;5036801;28;20454;-24
2022/10/04 03:36:04;;;;;;;6.80;2.05;;;;;;;;;;5036742;28;20080;-22
2022/10/04 03:38:32;;;;;;;2.35;1.30;;;;;;;;;;5036916;28;20022;-23
2022/10/04 03:40:59;;;;;;;10.80;2.03;;;;;;;;;;5036932;28;20055;-27
2022/10/04 03:43:33;;;;;;;5.22;1.83;;;;;;;;;;5036541;28;20446;-25
2022/10/04 03:46:04;;;;;;;2.67;1.48;;;;;;;;;;5036587;28;20115;-24
2022/10/04 03:48:39;;;;;;;3.45;1.90;;;;;;;;;;5037035;28;20033;-24
2022/10/04 03:51:06;;;;;;;7.57;2.13;;;;;;;;;;5036489;28;20033;-25
2022/10/04 03:53:35;;;;;;;4.82;2.13;;;;;;;;;;5036313;28;20044;-28
2022/10/04 03:56:02;;;;;;;4.38;1.50;;;;;;;;;;5036273;28;20041;-22
2022/10/04 03:58:29;;;;;;;2.83;1.80;;;;;;;;;;5036467;28;20037;-26
2022/10/04 04:00:59;;;;;;;3.20;1.92;;;;;;;;;;5036944;28;20134;-26
2022/10/04 04:03:28;;;;;;;5.53;1.58;;;;;;;;;;5034872;28;20171;-23
2022/10/04 04:05:58;;;;;;;5.05;1.73;;;;;;;;;;5036318;28;20095;-25
2022/10/04 04:08:32;;;;;;;3.08;1.70;;;;;;;;;;5036326;28;20021;-26
2022/10/04 04:10:59;;;;;;;5.32;1.80;;;;;;;;;;5035974;28;20021;-23
2022/10/04 04:13:29;;;;;;;5.90;1.77;;;;;;;;;;5035913;28;20033;-23
2022/10/04 04:15:56;;;;;;;7.55;1.52;;;;;;;;;;5035919;28;20359;-27
2022/10/04 04:18:23;;;;;;;5.53;1.52;;;;;;;;;;5036057;28;20053;-26
2022/10/04 04:20:50;;;;;;;4.93;2.03;;;;;;;;;;5035882;28;20049;-23
2022/10/04 04:23:23;;;;;;;2.95;1.58;;;;;;;;;;5035956;28;20386;-25
2022/10/04 04:25:51;;;;;;;2.70;1.30;;;;;;;;;;5035786;28;20029;-24
2022/10/04 04:28:24;;;;;;;2.83;1.52;;;;;;;;;;5035904;28;20415;-24
2022/10/04 04:30:53;;;;;;;4.32;1.80;;;;;;;;;;5035711;28;20036;-24
2022/10/04 04:33:30;;;;;;;4.50;1.73;;;;;;;;;;5035361;28;20037;-24
2022/10/04 04:36:03;;;;;;;3.90;1.50;;;;;;;;;;5035310;28;20385;-24
2022/10/04 04:38:29;;;;;;;4.78;1.67;;;;;;;;;;5035512;28;20343;-23
2022/10/04 04:40:56;;;;;;;5.45;1.70;;;;;;;;;;5035505;28;20358;-22
2022/10/04 04:43:25;;;;;;;4.47;1.38;;;;;;;;;;5035422;28;20408;-24
2022/10/04 04:45:51;;;;;;;3.95;1.77;;;;;;;;;;5035376;28;20022;-23
2022/10/04 04:48:18;;;;;;;2.85;1.67;;;;;;;;;;5035290;28;20112;-23
2022/10/04 04:50:49;;;;;;;3.85;1.77;;;;;;;;;;5035007;28;20035;-24
2022/10/04 04:53:17;;;;;;;2.78;1.63;;;;;;;;;;5035240;28;20029;-25
2022/10/04 04:55:44;;;;;;;4.93;1.70;;;;;;;;;;5035042;28;20099;-22
2022/10/04 04:58:21;;;;;;;8.88;2.03;;;;;;;;;;5034823;28;20032;-23
2022/10/04 05:01:13;;;;;;;6.85;2.03;;;;;;;;;;5035020;28;20018;-23
2022/10/04 05:03:40;;;;;;;4.68;1.92;;;;;;;;;;5031936;28;20060;-25
2022/10/04 05:06:21;;;;;;;5.13;2.33;;;;;;;;;;5034744;28;20033;-24
2022/10/04 05:08:49;;;;;;;6.05;1.80;;;;;;;;;;5034711;28;20033;-24
2022/10/04 05:11:17;;;;;;;7.28;2.13;;;;;;;;;;5034830;28;20032;-27
2022/10/04 05:13:44;;;;;;;6.10;1.67;;;;;;;;;;5034162;28;20033;-23
2022/10/04 05:16:14;;;;;;;4.72;2.15;;;;;;;;;;5034564;28;20128;-25
2022/10/04 05:18:40;;;;;;;3.47;1.85;;;;;;;;;;5034459;28;20029;-23
2022/10/04 05:21:13;;;;;;;10.43;1.63;;;;;;;;;;5034539;28;20021;-27
2022/10/04 05:23:39;;;;;;;5.35;2.17;;;;;;;;;;5034575;28;20022;-25
2022/10/04 05:26:10;;;;;;;8.25;2.80;;;;;;;;;;5034689;28;20029;-22
2022/10/04 05:28:36;;;;;;;6.05;2.10;;;;;;;;;;5034507;28;20478;-25
2022/10/04 05:31:02;;;;;;;6.15;1.90;;;;;;;;;;5034482;28;20397;-23
2022/10/04 05:33:44;;;;;;;7.07;1.75;;;;;;;;;;5034400;28;20033;-23
2022/10/04 05:36:10;;;;;;;7.40;1.92;;;;;;;;;;5034351;28;20512;-27
2022/10/04 05:38:46;;;;;;;5.38;1.60;;;;;;;;;;5034187;28;20112;-26
2022/10/04 05:41:19;;;;;;;6.65;1.73;;;;;;;;;;5034308;28;20123;-26
2022/10/04 05:43:46;;;;;;;6.65;2.60;;;;;;;;;;5034402;28;20029;-25
2022/10/04 05:46:30;;;;;;;5.18;1.52;;;;;;;;;;5034185;28;20478;-23
2022/10/04 05:49:12;;;;;;;7.75;1.75;;;;;;;;;;5034079;28;20025;-23
2022/10/04 05:52:08;;;;;;;6.47;2.17;;;;;;;;;;5034426;28;20045;-25
2022/10/04 05:54:35;;;;;;;6.85;1.63;;;;;;;;;;5021466;28;20112;-25
2022/10/04 05:57:18;;;;;;;9.65;1.75;;;;;;;;;;5034286;28;20148;-30
2022/10/04 06:00:17;;;;;;;12.27;3.28;;;;;;;;;;5034286;28;20033;-25
2022/10/04 06:02:43;;;;;;;19.05;3.38;;;;;;;;;;5001314;28;20053;-24
2022/10/04 06:05:09;;;;;;;7.75;2.30;;;;;;;;;;5034235;28;20059;-25
2022/10/04 06:07:46;;;;;;;18.42;2.97;;;;;;;;;;5034106;28;20086;-29
2022/10/04 06:10:27;;;;;;;9.48;2.00;;;;;;;;;;5034238;28;20415;-25
2022/10/04 06:12:54;;;;;;;;;;;;;;;;;;5034447;28;20029;-23
2022/10/04 06:15:39;;;;;;;11.40;1.95;;;;;;;;;;5033907;28;19911;-24
2022/10/04 06:18:08;;;;;;;8.98;2.33;;;;;;;;;;5034050;28;20034;-22
2022/10/04 06:20:46;;;;;;;18.45;2.85;;;;;;;;;;5033971;28;20021;-26
2022/10/04 06:23:17;;;;;;;14.80;2.60;;;;;;;;;;5033735;28;20029;-29
2022/10/04 06:25:46;;;;;;;11.02;2.65;;;;;;;;;;5034189;28;20053;-23
2022/10/04 06:28:22;;;;;;;10.40;3.05;;;;;;;;;;5037622;28;20091;-28
2022/10/04 06:30:52;;;;;;;7.32;2.63;;;;;;;;;;5037653;28;20083;-27
2022/10/04 06:33:48;;;;;;;12.10;2.17;;;;;;;;;;5037446;28;20033;-23
2022/10/04 06:36:21;;;;;;;16.58;2.30;;;;;;;;;;5037574;28;20087;-22
2022/10/04 06:38:47;;;;;;;7.43;2.58;;;;;;;;;;5036689;28;20465;-23
2022/10/04 06:41:14;;;;;;;8.32;2.20;;;;;;;;;;5037725;28;20335;-23
2022/10/04 06:43:48;;;;;;;11.20;3.28;;;;;;;;;;5037438;28;20021;-23
2022/10/04 06:46:16;;;;;;;13.18;2.70;;;;;;;;;;5037321;28;20060;-24
2022/10/04 06:48:51;;;;;;;15.13;3.20;;;;;;;;;;5037702;28;20042;-24
2022/10/04 06:51:41;;;;;;;7.88;2.08;;;;;;;;;;5036248;28;20148;-25
2022/10/04 06:54:26;;;;;;;10.63;3.05;;;;;;;;;;5009641;28;20048;-23
2022/10/04 06:56:54;;;;;;;8.73;3.70;;;;;;;;;;5037500;28;20037;-23
2022/10/04 06:59:21;;;;;;;10.07;2.90;;;;;;;;;;5037118;28;20029;-29
2022/10/04 07:01:52;;;;;;;4.55;2.30;;;;;;;;;;5037012;28;20033;-24
2022/10/04 07:04:21;;;;;;;15.30;2.92;;;;;;;;;;5036789;28;20041;-27
2022/10/04 07:06:50;;;;;;;13.65;2.58;;;;;;;;;;5036919;28;20033;-24
2022/10/04 07:09:19;;;;;;;7.20;2.15;;;;;;;;;;5037221;28;20140;-23
2022/10/04 07:11:59;;;;;;;7.80;1.98;;;;;;;;;;5036769;28;20037;-25
2022/10/04 07:14:31;;;;;;;4.50;2.38;;;;;;;;;;5036893;28;20112;-24
2022/10/04 07:17:13;;;;;;;6.38;1.90;;;;;;;;;;5035897;28;20073;-23
2022/10/04 07:19:41;;;;;;;11.23;1.85;;;;;;;;;;5036956;28;20512;-25
2022/10/04 07:22:11;;;;;;;4.53;1.88;;;;;;;;;;5036713;28;20025;-28
2022/10/04 07:24:56;;;;;;;8.77;2.03;;;;;;;;;;5036691;28;20029;-23
2022/10/04 07:27:41;;;;;;;6.90;2.33;;;;;;;;;;5036659;28;20048;-23
2022/10/04 07:30:08;;;;;;;17.52;2.50;;;;;;;;;;5036526;28;20045;-23
2022/10/04 07:32:37;;;;;;;6.45;2.78;;;;;;;;;;5036385;28;20029;-28
2022/10/04 07:35:11;;;;;;;5.95;1.90;;;;;;;;;;5036763;28;20048;-24
2022/10/04 07:37:58;;;;;;;11.15;2.28;;;;;;;;;;5036999;28;20048;-23
2022/10/04 07:40:29;;;;;;;15.70;2.40;;;;;;;;;;5026707;28;20070;-23
2022/10/04 07:42:58;;;;;;;15.18;2.10;;;;;;;;;;5036246;28;20032;-23
2022/10/04 07:45:33;;;;;;;14.45;2.33;;;;;;;;;;5036412;28;20026;-27
2022/10/04 07:48:04;;;;;;;12.98;2.83;;;;;;;;;;5036457;28;20030;-28
2022/10/04 07:50:35;;;;;;;8.43;1.98;;;;;;;;;;5036623;28;20025;-23
2022/10/04 07:53:01;;;;;;;;;;;;;;;;;;5036626;28;20025;-23
2022/10/04 07:55:41;;;;;;;13.52;2.10;;;;;;;;;;5036223;28;20334;-23
2022/10/04 07:58:23;;;;;;;7.70;2.60;;;;;;;;;;5036525;28;20021;-26
2022/10/04 08:00:54;;;;;;;12.60;2.30;;;;;;;;;;5036433;28;20022;-24
2022/10/04 08:03:20;;;;;;;13.05;2.42;;;;;;;;;;5035973;28;20390;-24
2022/10/04 08:06:12;;;;;;;7.30;2.58;;;;;;;;;;5035898;28;20036;-27
2022/10/04 08:08:42;;;;;;;15.77;2.60;;;;;;;;;;5033277;28;20167;-24
2022/10/04 08:11:18;;;;;;;13.95;2.13;;;;;;;;;;5035987;28;20048;-28
2022/10/04 08:13:44;;;;;;;14.75;2.65;;;;;;;;;;5036143;28;20033;-22
2022/10/04 08:16:22;;;;;;;21.75;3.17;;;;;;;;;;5036249;28;20021;-24
2022/10/04 08:19:03;;;;;;;15.82;2.97;;;;;;;;;;5035890;28;20121;-24
2022/10/04 08:21:35;;;;;;;15.82;2.72;;;;;;;;;;5035920;28;20072;-26
2022/10/04 08:24:10;;;;;;;23.58;3.10;;;;;;;;;;5035624;28;20523;-24
2022/10/04 08:26:40;;;;;;;16.33;2.63;;;;;;;;;;5036018;28;20018;-24
2022/10/04 08:32:05;;;;;;;12.27;4.20;;;;;;;;;;5035630;28;20167;-27
2022/10/04 08:34:39;;;;;;;9.73;2.67;;;;;;;;;;5035486;28;20032;-26
2022/10/04 08:37:17;;;;;;;20.80;2.85;;;;;;;;;;5035546;28;20413;-25
2022/10/04 08:40:02;;;;;;;31.73;3.72;;;;;;;;;;5035562;28;20045;-23
2022/10/04 08:42:46;;;;;;;19.15;4.18;;;;;;;;;;5035577;28;20033;-24
2022/10/04 08:45:31;;;;;;;20.30;3.55;;;;;;;;;;5035188;28;20366;-25
2022/10/04 08:48:21;;;;;;;20.65;3.80;;;;;;;;;;5035407;28;20335;-24
2022/10/04 08:51:05;;;;;;;22.38;3.20;;;;;;;;;;5034984;28;20033;-25
2022/10/04 08:53:43;;;;;;;32.72;4.13;;;;;;;;;;5035302;28;20036;-26
2022/10/04 08:56:19;;;;;;;47.70;4.60;;;;;;;;;;5034996;28;20458;-23
2022/10/04 08:58:55;;;;;;;24.92;3.15;;;;;;;;;;5035016;28;20036;-27
2022/10/04 09:01:28;;;;;;;24.77;4.00;;;;;;;;;;5034852;28;20397;-22
2022/10/04 09:04:00;;;;;;;13.70;3.88;;;;;;;;;;5034784;28;20048;-25
2022/10/04 09:06:29;;;;;;;26.50;3.72;;;;;;;;;;5035020;28;20026;-23
2022/10/04 09:09:12;;;;;;;23.83;3.63;;;;;;;;;;5034713;28;20049;-23
2022/10/04 09:11:40;;;;;;;32.70;4.00;;;;;;;;;;5034786;28;20335;-24
2022/10/04 09:14:22;;;;;;;25.75;4.07;;;;;;;;;;5034545;28;20366;-24
2022/10/04 09:16:52;;;;;;;26.55;3.00;;;;;;;;;;5034928;28;20029;-27
2022/10/04 09:19:21;;;;;;;28.08;3.92;;;;;;;;;;5035138;28;20029;-23
2022/10/04 09:21:47;;;;;;;22.35;3.47;;;;;;;;;;5034733;28;20032;-24
2022/10/04 09:24:32;;;;;;;29.63;4.05;;;;;;;;;;5034484;28;20434;-26
2022/10/04 09:26:58;;;;;;;27.75;3.40;;;;;;;;;;5034724;28;20048;-24
2022/10/04 09:29:34;;;;;;;21.42;3.80;;;;;;;;;;5034646;28;20053;-23
2022/10/04 09:32:12;;;;;;;33.05;2.88;;;;;;;;;;5034564;28;20112;-23
2022/10/04 09:34:44;;;;;;;25.00;4.88;;;;;;;;;;5033260;28;20447;-23
2022/10/04 09:37:14;;;;;;;33.38;3.85;;;;;;;;;;5033956;28;20025;-25
2022/10/04 09:39:57;;;;;;;25.85;3.15;;;;;;;;;;5034647;28;20033;-24
2022/10/04 09:42:24;;;;;;;23.20;3.63;;;;;;;;;;5034615;28;20458;-23
2022/10/04 09:44:56;;;;;;;12.38;3.85;;;;;;;;;;5034528;28;20426;-25
2022/10/04 09:47:23;;;;;;;17.33;3.55;;;;;;;;;;5035238;28;20192;-25
2022/10/04 09:50:01;;;;;;;22.40;4.28;;;;;;;;;;5034392;28;20053;-23
2022/10/04 09:52:50;;;;;;;37.88;3.70;;;;;;;;;;5034274;28;20031;-23
2022/10/04 09:55:32;;;;;;;41.70;5.03;;;;;;;;;;5006595;28;20420;-23
2022/10/04 09:58:13;;;;;;;30.30;3.53;;;;;;;;;;5033858;28;20029;-23
2022/10/04 10:00:39;;;;;;;;;;;;;;;;;;5034791;28;20033;-23
2022/10/04 10:03:07;;;;;;;28.42;4.18;;;;;;;;;;5038062;28;19931;-23
2022/10/04 10:05:36;;;;;;;28.55;3.92;;;;;;;;;;5037218;28;20041;-23
2022/10/04 10:08:25;;;;;;;30.40;5.18;;;;;;;;;;5038071;28;20421;-23
2022/10/04 10:14:21;;;;;;;22.45;3.20;;;;;;;;;;5038291;28;20047;-23
2022/10/04 10:16:59;;;;;;;24.38;3.17;;;;;;;;;;5035268;28;20199;-32
2022/10/04 10:19:32;;;;;;;20.63;3.22;;;;;;;;;;5037914;28;20036;-25
2022/10/04 10:22:13;;;;;;;22.13;4.72;;;;;;;;;;5038633;28;20026;-28
2022/10/04 10:24:58;;;;;;;17.00;3.10;;;;;;;;;;5038047;28;20021;-26
2022/10/04 10:27:47;;;;;;;14.95;3.15;;;;;;;;;;5038443;28;20056;-23
2022/10/04 10:30:22;;;;;;;50.72;8.38;;;;;;;;;;5030104;28;20033;-27
2022/10/04 10:33:19;;;;;;;29.83;3.33;;;;;;;;;;5037949;28;20029;-25
2022/10/04 10:35:52;;;;;;;16.45;3.03;;;;;;;;;;4985283;28;20118;-28
2022/10/04 10:38:30;;;;;;;68.55;6.88;;;;;;;;;;5037824;28;20033;-26
2022/10/04 10:41:05;;;;;;;20.83;4.88;;;;;;;;;;5037891;28;20025;-28
2022/10/04 10:43:33;;;;;;;21.83;3.60;;;;;;;;;;5037651;28;20462;-28
2022/10/04 10:46:05;;;;;;;23.05;3.60;;;;;;;;;;5037523;28;20084;-22
2022/10/04 10:48:49;;;;;;;21.20;3.95;;;;;;;;;;5038080;28;20469;-25
2022/10/04 10:51:22;;;;;;;46.85;5.70;;;;;;;;;;5037730;28;20454;-23
2022/10/04 10:54:06;;;;;;;20.17;4.53;;;;;;;;;;5037498;28;20030;-25
2022/10/04 10:56:35;;;;;;;24.42;3.03;;;;;;;;;;5037713;28;20061;-23
2022/10/04 10:59:02;;;;;;;19.15;3.78;;;;;;;;;;5037076;28;20044;-31
2022/10/04 11:01:28;;;;;;;43.13;6.07;;;;;;;;;;5037380;28;20033;-23
2022/10/04 11:04:13;;;;;;;21.10;3.80;;;;;;;;;;5036751;28;20450;-23
2022/10/04 11:07:03;;;;;;;22.10;3.58;;;;;;;;;;5037372;28;20450;-23
2022/10/04 11:09:39;;;;;;;16.88;3.47;;;;;;;;;;5037538;28;20049;-24
2022/10/04 11:12:12;;;;;;;22.35;4.93;;;;;;;;;;5036202;28;20061;-24
2022/10/04 11:14:53;;;;;;;21.48;3.10;;;;;;;;;;5037076;28;20040;-24
2022/10/04 11:17:22;;;;;;;23.55;5.03;;;;;;;;;;5036561;28;20053;-25
2022/10/04 11:19:59;;;;;;;30.20;4.20;;;;;;;;;;5036959;28;20112;-23
2022/10/04 11:22:50;;;;;;;41.72;5.18;;;;;;;;;;5036857;28;20034;-23
2022/10/04 11:25:46;;;;;;;29.40;3.85;;;;;;;;;;5037158;28;20037;-23
2022/10/04 11:28:23;;;;;;;21.40;3.25;;;;;;;;;;5024178;28;20058;-24
2022/10/04 11:31:10;;;;;;;32.75;5.15;;;;;;;;;;5037032;28;20414;-24
2022/10/04 11:33:39;;;;;;;55.28;6.90;;;;;;;;;;5036970;28;20053;-23
2022/10/04 11:36:16;;;;;;;30.83;4.55;;;;;;;;;;5036599;28;20030;-24
2022/10/04 11:38:47;;;;;;;22.45;4.10;;;;;;;;;;5036477;28;20034;-25
2022/10/04 11:41:33;;;;;;;24.35;4.22;;;;;;;;;;5036668;28;20366;-24
2022/10/04 11:44:05;;;;;;;31.35;4.88;;;;;;;;;;5036205;28;20026;-25
2022/10/04 11:46:34;;;;;;;38.00;5.55;;;;;;;;;;5036470;28;20093;-27
2022/10/04 11:49:19;;;;;;;44.08;5.30;;;;;;;;;;5036305;28;20095;-24
2022/10/04 11:51:48;;;;;;;29.55;4.15;;;;;;;;;;5036183;28;20041;-23
2022/10/04 11:54:29;;;;;;;28.27;4.32;;;;;;;;;;5036144;28;20100;-27
2022/10/04 11:57:06;;;;;;;29.40;4.40;;;;;;;;;;5034787;28;20041;-23
2022/10/04 11:59:33;;;;;;;38.40;4.40;;;;;;;;;;5035889;28;20107;-24
2022/10/04 12:02:01;;;;;;;21.55;4.80;;;;;;;;;;5036165;28;20566;-25
2022/10/04 12:04:39;;;;;;;43.15;5.47;;;;;;;;;;5035582;28;20486;-25
2022/10/04 12:07:07;;;;;;;36.70;6.45;;;;;;;;;;5035627;28;20112;-27
2022/10/04 12:09:41;;;;;;;25.00;4.80;;;;;;;;;;5035860;28;20477;-25
2022/10/04 12:12:38;;;;;;;39.40;4.60;;;;;;;;;;5035861;28;20029;-25
2022/10/04 12:15:21;;;;;;;30.75;6.38;;;;;;;;;;5035915;28;20067;-23
2022/10/04 12:17:56;;;;;;;43.97;5.47;;;;;;;;;;5035537;28;20052;-24
2022/10/04 12:20:28;;;;;;;25.60;4.25;;;;;;;;;;5036010;28;20025;-23
2022/10/04 12:23:00;;;;;;;43.78;5.82;;;;;;;;;;5036078;28;20343;-24
2022/10/04 12:25:35;;;;;;;28.85;5.18;;;;;;;;;;5034851;28;20032;-25
2022/10/04 12:28:10;;;;;;;35.22;5.40;;;;;;;;;;5035866;28;20344;-24
2022/10/04 12:30:40;;;;;;;31.83;6.07;;;;;;;;;;5035936;28;20454;-24
2022/10/04 12:33:09;;;;;;;33.17;6.18;;;;;;;;;;5035664;28;20389;-25
2022/10/04 12:36:05;;;;;;;42.00;6.25;;;;;;;;;;5035713;28;20097;-23
2022/10/04 12:38:31;;;;;;;59.30;7.63;;;;;;;;;;5022178;28;20041;-24
2022/10/04 12:41:00;;;;;;;81.53;10.23;;;;;;;;;;5035512;28;20100;-26
2022/10/04 12:43:37;;;;;;;280.00;26.13;;;;;;;;;;5035062;28;20072;-28
2022/10/04 12:46:16;;;;;;;85.57;9.75;;;;;;;;;;5035309;28;20029;-24
2022/10/04 12:48:47;;;;;;;154.88;14.95;;;;;;;;;;5035164;28;20149;-23
2022/10/04 12:51:13;;;;;;;;;;;;;;;;;;5035553;28;20029;-23
2022/10/04 12:54:03;;;;;;;60.72;7.10;;;;;;;;;;5034777;28;19905;-22
2022/10/04 12:56:38;;;;;;;65.45;9.57;;;;;;;;;;5035270;28;20071;-27
2022/10/04 12:59:22;;;;;;;54.85;6.75;;;;;;;;;;5035252;28;20061;-24
2022/10/04 13:01:55;;;;;;;40.60;7.15;;;;;;;;;;5034580;28;20067;-24
2022/10/04 13:04:34;;;;;;;42.25;5.63;;;;;;;;;;5034589;28;20049;-23
2022/10/04 13:07:13;;;;;;;46.17;5.70;;;;;;;;;;5034888;28;20075;-33
2022/10/04 13:09:40;;;;;;;47.33;7.05;;;;;;;;;;5034873;28;20060;-23
2022/10/04 13:12:06;;;;;;;43.17;6.32;;;;;;;;;;5034539;28;20363;-23
2022/10/04 13:14:44;;;;;;;39.67;5.32;;;;;;;;;;5034376;28;20036;-25
2022/10/04 13:17:23;;;;;;;41.50;6.15;;;;;;;;;;5034599;28;20032;-24
2022/10/04 13:19:51;;;;;;;38.42;6.32;;;;;;;;;;5034394;28;20430;-23
2022/10/04 13:22:17;;;;;;;30.40;5.07;;;;;;;;;;5034623;28;20119;-22
2022/10/04 13:24:59;;;;;;;36.03;6.47;;;;;;;;;;5034413;28;20048;-23
2022/10/04 13:27:30;;;;;;;23.25;5.07;;;;;;;;;;5034557;28;20038;-25
2022/10/04 13:30:07;;;;;;;28.35;5.53;;;;;;;;;;5034263;28;20025;-26
2022/10/04 13:32:42;;;;;;;25.20;5.82;;;;;;;;;;5034557;28;20347;-23
2022/10/04 13:35:14;;;;;;;36.05;6.25;;;;;;;;;;5034452;28;20100;-22
2022/10/04 13:37:56;;;;;;;38.38;6.28;;;;;;;;;;5034143;28;20362;-24
2022/10/04 13:40:22;;;;;;;30.95;6.13;;;;;;;;;;5034450;28;20112;-23
2022/10/04 13:42:59;;;;;;;38.67;5.75;;;;;;;;;;5034693;28;20410;-25
2022/10/04 13:45:46;;;;;;;49.05;6.80;;;;;;;;;;5034496;28;20107;-23
2022/10/04 13:48:24;;;;;;;50.67;7.75;;;;;;;;;;5034427;28;20040;-25
2022/10/04 13:51:09;;;;;;;34.00;6.32;;;;;;;;;;5034047;28;20429;-25
2022/10/04 13:56:35;;;;;;;53.97;6.90;;;;;;;;;;5034106;28;20087;-26
2022/10/04 13:59:16;;;;;;;31.55;5.68;;;;;;;;;;5034002;28;20033;-27
2022/10/04 14:02:01;;;;;;;51.53;7.47;;;;;;;;;;5034100;28;20040;-26
2022/10/04 14:04:41;;;;;;;49.35;6.13;;;;;;;;;;5034253;28;20041;-24
2022/10/04 14:07:26;;;;;;;38.92;6.15;;;;;;;;;;5034674;28;20026;-23
2022/10/04 14:10:10;;;;;;;37.92;6.85;;;;;;;;;;5033957;28;20064;-25
2022/10/04 14:12:45;;;;;;;45.88;6.85;;;;;;;;;;5033957;28;20025;-22
2022/10/04 14:15:30;;;;;;;63.10;7.35;;;;;;;;;;5033999;28;20467;-23
2022/10/04 14:18:14;;;;;;;69.70;6.88;;;;;;;;;;5033937;28;20033;-25
2022/10/04 14:20:41;;;;;;;55.47;6.75;;;;;;;;;;5034110;28;20033;-25
2022/10/04 14:23:19;;;;;;;29.48;5.15;;;;;;;;;;5034319;28;20048;-23
2022/10/04 14:25:46;;;;;;;19.23;4.75;;;;;;;;;;5034060;28;20040;-23
2022/10/04 14:28:21;;;;;;;22.85;5.55;;;;;;;;;;5034209;28;20044;-22
2022/10/04 14:30:50;;;;;;;39.95;8.85;;;;;;;;;;5034231;28;20044;-31
2022/10/04 14:33:16;;;;;;;40.10;6.03;;;;;;;;;;5033931;28;20041;-27
2022/10/04 14:36:01;;;;;;;32.22;4.85;;;;;;;;;;5034047;28;20036;-23
2022/10/04 14:38:53;;;;;;;23.33;6.97;;;;;;;;;;5034250;28;20115;-25
2022/10/04 14:41:40;;;;;;;32.15;5.43;;;;;;;;;;5011009;28;20175;-23
2022/10/04 14:44:24;;;;;;;29.50;4.88;;;;;;;;;;5033777;28;20071;-20
2022/10/04 14:47:29;;;;;;;32.53;5.85;;;;;;;;;;5034034;28;20452;-24
2022/10/04 14:50:17;;;;;;;29.00;5.57;;;;;;;;;;4976915;28;20456;-24
2022/10/04 14:52:46;;;;;;;25.73;5.10;;;;;;;;;;4976933;28;20031;-25
2022/10/04 14:55:31;;;;;;;29.00;6.22;;;;;;;;;;5016097;28;20038;-22
2022/10/04 14:58:13;;;;;;;24.60;5.97;;;;;;;;;;5037614;28;20095;-29
2022/10/04 15:00:57;;;;;;;32.90;5.45;;;;;;;;;;5037359;28;20038;-23
2022/10/04 15:03:30;;;;;;;37.58;6.72;;;;;;;;;;5037088;28;20363;-23
2022/10/04 15:06:10;;;;;;;55.33;8.00;;;;;;;;;;5037265;28;20386;-26
2022/10/04 15:08:38;;;;;;;49.93;7.13;;;;;;;;;;5037265;28;20119;-22
2022/10/04 15:11:08;;;;;;;25.95;5.28;;;;;;;;;;5037261;28;20037;-25
2022/10/04 15:13:39;;;;;;;23.90;6.75;;;;;;;;;;5036978;28;20026;-23
2022/10/04 15:16:08;;;;;;;34.25;5.30;;;;;;;;;;5037479;28;20043;-24
2022/10/04 15:18:38;;;;;;;33.25;5.70;;;;;;;;;;5036693;28;20109;-23
2022/10/04 15:21:20;;;;;;;29.60;5.15;;;;;;;;;;5036577;28;20022;-26
2022/10/04 15:23:52;;;;;;;38.42;7.82;;;;;;;;;;5036759;28;20034;-23
2022/10/04 15:26:18;;;;;;;33.45;5.95;;;;;;;;;;5036757;28;20022;-24
2022/10/04 15:28:53;;;;;;;30.20;6.47;;;;;;;;;;5035477;28;20037;-23